Time;durP1;ratioP1;P1;durP2;ratioP2;P2;SDS_P1;SDS_P2;PMS_P1;PMS_P2;Temp;Humidity;BMP_temperature;BMP_pressure;BME280_temperature;BME280_humidity;BME280_pressure;Samples;Min_cycle;Max_cycle;Signal;HPM_P1;HPM_P2
2022/02/20 00:01:19;;;;;;;1.85;0.90;;;23.30;44.10;;;;;;4999134;28;20034;-68
2022/02/20 00:03:45;;;;;;;2.70;1.00;;;23.20;44.00;;;;;;4999581;28;20030;-69
2022/02/20 00:06:10;;;;;;;1.67;0.90;;;23.30;44.00;;;;;;4998207;28;20033;-70
2022/02/20 00:08:36;;;;;;;1.75;0.82;;;23.30;44.00;;;;;;4996776;28;20025;-69
2022/02/20 00:11:02;;;;;;;2.00;1.00;;;23.20;44.00;;;;;;4998047;28;20785;-67
2022/02/20 00:13:28;;;;;;;1.67;1.00;;;23.20;44.00;;;;;;4998497;28;20513;-68
2022/02/20 00:15:53;;;;;;;1.92;0.93;;;23.20;44.00;;;;;;5015395;28;20026;-68
2022/02/20 00:18:19;;;;;;;1.77;1.08;;;23.30;44.00;;;;;;5001059;28;20138;-69
2022/02/20 00:20:46;;;;;;;1.42;0.80;;;23.30;44.00;;;;;;5000284;28;20029;-71
2022/02/20 00:23:13;;;;;;;2.13;0.80;;;23.20;43.90;;;;;;5005389;28;20132;-69
2022/02/20 00:25:39;;;;;;;1.92;0.90;;;23.20;43.80;;;;;;4998544;28;20030;-69
2022/02/20 00:28:05;;;;;;;2.17;0.90;;;23.20;43.80;;;;;;4999238;28;20034;-68
2022/02/20 00:30:32;;;;;;;1.58;1.00;;;23.20;43.80;;;;;;5013258;28;20038;-67
2022/02/20 00:32:58;;;;;;;1.85;0.73;;;23.20;43.80;;;;;;5003580;28;20041;-70
2022/02/20 00:35:25;;;;;;;1.65;0.90;;;23.20;43.80;;;;;;4998440;28;20414;-68
2022/02/20 00:37:50;;;;;;;1.58;0.70;;;23.20;43.80;;;;;;5001341;28;20026;-68
2022/02/20 00:40:16;;;;;;;2.17;0.90;;;23.20;43.70;;;;;;5015806;28;20040;-69
2022/02/20 00:42:42;;;;;;;1.73;0.90;;;23.20;43.70;;;;;;4999509;28;20558;-70
2022/02/20 00:45:08;;;;;;;1.75;1.10;;;23.20;43.70;;;;;;4999610;28;20036;-67
2022/02/20 00:47:34;;;;;;;2.13;0.95;;;23.20;43.80;;;;;;4998444;28;20080;-68
2022/02/20 00:49:59;;;;;;;1.48;0.90;;;23.20;43.70;;;;;;4999424;28;20038;-69
2022/02/20 00:52:25;;;;;;;1.98;0.90;;;23.20;43.70;;;;;;5001489;28;20030;-69
2022/02/20 00:54:51;;;;;;;1.50;0.80;;;23.20;43.70;;;;;;4999666;28;20041;-69
2022/02/20 00:57:16;;;;;;;1.48;0.80;;;23.20;43.60;;;;;;4997876;28;20030;-71
2022/02/20 00:59:42;;;;;;;1.27;0.75;;;23.20;43.50;;;;;;4997276;28;20030;-69
2022/02/20 01:02:08;;;;;;;1.00;0.70;;;23.20;43.50;;;;;;4997925;28;20398;-70
2022/02/20 01:04:33;;;;;;;1.38;0.80;;;23.20;43.70;;;;;;5012695;28;20471;-73
2022/02/20 01:06:59;;;;;;;1.42;0.80;;;23.20;43.60;;;;;;4996686;28;20050;-70
2022/02/20 01:09:25;;;;;;;1.20;0.80;;;23.20;43.70;;;;;;4997008;28;20059;-72
2022/02/20 01:11:51;;;;;;;1.73;0.80;;;23.20;43.60;;;;;;4994286;28;20033;-70
2022/02/20 01:14:16;;;;;;;1.45;0.75;;;23.20;43.60;;;;;;4993775;28;20030;-70
2022/02/20 01:16:42;;;;;;;1.02;0.70;;;23.20;43.50;;;;;;4997177;28;20036;-69
2022/02/20 01:19:07;;;;;;;1.27;0.70;;;23.10;43.50;;;;;;4995981;28;20387;-71
2022/02/20 01:21:33;;;;;;;1.05;0.80;;;23.10;43.50;;;;;;4996202;28;20030;-70
2022/02/20 01:23:59;;;;;;;1.05;0.60;;;23.10;43.60;;;;;;4997761;28;20026;-70
2022/02/20 01:26:24;;;;;;;1.40;0.80;;;23.10;43.50;;;;;;5010194;28;20026;-69
2022/02/20 01:28:50;;;;;;;0.90;0.70;;;23.10;43.70;;;;;;4994592;28;20607;-70
2022/02/20 01:31:16;;;;;;;1.30;0.68;;;23.00;43.50;;;;;;5009381;28;20445;-70
2022/02/20 01:33:42;;;;;;;1.27;0.73;;;23.00;43.60;;;;;;4996920;28;20034;-69
2022/02/20 01:36:08;;;;;;;1.30;0.70;;;23.00;43.70;;;;;;4996797;28;20030;-70
2022/02/20 01:38:34;;;;;;;0.88;0.70;;;22.90;43.60;;;;;;4996010;28;20477;-72
2022/02/20 01:41:03;;;;;;;1.73;0.90;;;22.90;43.70;;;;;;4993391;28;20054;-70
2022/02/20 01:43:29;;;;;;;1.55;0.80;;;22.90;43.70;;;;;;4996141;28;20065;-70
2022/02/20 01:45:55;;;;;;;0.88;0.60;;;22.90;43.70;;;;;;5009660;28;20062;-71
2022/02/20 01:48:21;;;;;;;1.10;0.60;;;22.90;43.70;;;;;;4996323;28;20146;-74
2022/02/20 01:50:47;;;;;;;0.90;0.60;;;22.80;43.60;;;;;;5011073;28;20034;-71
2022/02/20 01:53:13;;;;;;;1.77;0.80;;;22.80;43.70;;;;;;4997403;28;20038;-69
2022/02/20 01:55:39;;;;;;;1.15;0.70;;;22.80;43.80;;;;;;5011871;28;20157;-69
2022/02/20 01:58:05;;;;;;;1.77;0.80;;;22.80;43.80;;;;;;5010919;28;20037;-71
2022/02/20 02:00:31;;;;;;;0.82;0.50;;;22.70;43.80;;;;;;5008785;28;20578;-70
2022/02/20 02:02:57;;;;;;;2.05;0.80;;;22.70;43.80;;;;;;4995819;28;20508;-69
2022/02/20 02:05:22;;;;;;;1.10;0.70;;;22.70;43.80;;;;;;5010660;28;20475;-71
2022/02/20 02:07:51;;;;;;;1.60;0.90;;;22.70;43.80;;;;;;4996880;28;20088;-73
2022/02/20 02:10:17;;;;;;;1.08;0.60;;;22.70;43.70;;;;;;5011861;28;20044;-70
2022/02/20 02:12:42;;;;;;;1.00;0.70;;;22.60;43.70;;;;;;4996665;28;20351;-68
2022/02/20 02:15:10;;;;;;;1.25;0.68;;;22.60;43.80;;;;;;5010461;28;20026;-70
2022/02/20 02:17:36;;;;;;;0.80;0.60;;;22.60;43.80;;;;;;5012776;28;20026;-71
2022/02/20 02:20:04;;;;;;;1.00;0.60;;;22.50;43.80;;;;;;4998265;28;20082;-72
2022/02/20 02:22:30;;;;;;;0.70;0.60;;;22.60;43.90;;;;;;5001369;28;20111;-70
2022/02/20 02:24:58;;;;;;;0.93;0.52;;;22.50;43.80;;;;;;5013799;28;20563;-73
2022/02/20 02:27:23;;;;;;;0.60;0.50;;;22.50;43.80;;;;;;4999439;28;20139;-72
2022/02/20 02:29:50;;;;;;;0.70;0.60;;;22.50;43.90;;;;;;4998111;28;20033;-71
2022/02/20 02:32:17;;;;;;;1.02;0.60;;;22.40;43.90;;;;;;4998299;28;20038;-72
2022/02/20 02:34:46;;;;;;;1.27;0.70;;;22.40;43.80;;;;;;4999308;28;20030;-73
2022/02/20 02:37:12;;;;;;;1.27;0.68;;;22.50;43.90;;;;;;4999382;28;20062;-72
2022/02/20 02:39:38;;;;;;;0.70;0.50;;;22.40;43.90;;;;;;4997988;28;20160;-70
2022/02/20 02:42:05;;;;;;;1.00;0.60;;;22.40;43.80;;;;;;4998299;28;20038;-72
2022/02/20 02:44:31;;;;;;;0.77;0.68;;;22.40;43.80;;;;;;4997522;28;20030;-69
2022/02/20 02:46:56;;;;;;;0.98;0.60;;;22.40;43.90;;;;;;4999121;28;20480;-73
2022/02/20 02:49:22;;;;;;;1.33;0.63;;;22.40;43.90;;;;;;4997003;28;20137;-72
2022/02/20 02:51:48;;;;;;;1.02;0.60;;;22.30;43.80;;;;;;5000513;28;20034;-70
2022/02/20 02:54:17;;;;;;;1.33;0.70;;;22.30;43.80;;;;;;4999736;28;20030;-68
2022/02/20 02:56:46;;;;;;;0.65;0.50;;;22.30;43.80;;;;;;4998598;28;20026;-71
2022/02/20 02:59:13;;;;;;;0.88;0.57;;;22.30;43.90;;;;;;4998932;28;20406;-73
2022/02/20 03:01:40;;;;;;;1.65;0.60;;;22.30;43.90;;;;;;4998669;28;20520;-73
2022/02/20 03:04:05;;;;;;;1.02;0.60;;;22.20;43.80;;;;;;4998957;28;20120;-73
2022/02/20 03:06:31;;;;;;;1.38;0.68;;;22.20;43.80;;;;;;4999452;28;20568;-69
2022/02/20 03:08:57;;;;;;;1.00;0.60;;;22.20;43.80;;;;;;5013722;28;20108;-70
2022/02/20 03:11:23;;;;;;;0.57;0.50;;;22.20;43.90;;;;;;4998243;28;20098;-70
2022/02/20 03:13:48;;;;;;;0.98;0.63;;;22.10;43.90;;;;;;4998789;28;20026;-70
2022/02/20 03:16:15;;;;;;;0.73;0.60;;;22.10;44.00;;;;;;4997791;28;20057;-72
2022/02/20 03:18:40;;;;;;;1.02;0.60;;;22.10;44.00;;;;;;5013171;28;20037;-70
2022/02/20 03:21:07;;;;;;;1.20;0.55;;;22.10;44.00;;;;;;5012356;28;20483;-73
2022/02/20 03:23:34;;;;;;;0.68;0.50;;;22.10;44.00;;;;;;4998225;28;20085;-70
2022/02/20 03:26:00;;;;;;;0.68;0.50;;;22.10;44.00;;;;;;4994823;28;20398;-69
2022/02/20 03:28:25;;;;;;;0.50;0.40;;;22.00;44.00;;;;;;4996577;28;20106;-70
2022/02/20 03:30:51;;;;;;;0.63;0.50;;;22.00;44.00;;;;;;5009623;28;20136;-72
2022/02/20 03:33:18;;;;;;;0.75;0.60;;;22.00;44.00;;;;;;5014176;28;20088;-72
2022/02/20 03:35:43;;;;;;;0.95;0.70;;;22.00;44.00;;;;;;5012122;28;20081;-71
2022/02/20 03:38:10;;;;;;;1.02;0.70;;;22.00;43.90;;;;;;4997647;28;20839;-71
2022/02/20 03:40:36;;;;;;;1.45;0.68;;;22.00;44.00;;;;;;4996389;28;20501;-73
2022/02/20 03:43:01;;;;;;;1.30;0.60;;;22.00;44.00;;;;;;4997961;28;20030;-68
2022/02/20 03:45:28;;;;;;;0.73;0.50;;;21.90;44.00;;;;;;4998116;28;20395;-70
2022/02/20 03:47:54;;;;;;;1.20;0.70;;;21.90;43.90;;;;;;4996369;28;20200;-74
2022/02/20 03:50:20;;;;;;;0.60;0.50;;;21.90;43.90;;;;;;4998464;28;20137;-75
2022/02/20 03:52:47;;;;;;;0.95;0.60;;;21.90;43.90;;;;;;4996363;28;20072;-70
2022/02/20 03:55:13;;;;;;;0.50;0.50;;;21.90;44.00;;;;;;5014103;28;20026;-74
2022/02/20 03:57:39;;;;;;;1.20;0.57;;;21.90;43.90;;;;;;4998102;28;20026;-70
2022/02/20 04:00:26;;;;;;;0.63;0.50;;;21.90;44.00;;;;;;5009525;28;20033;-71
2022/02/20 04:02:52;;;;;;;0.80;0.50;;;21.80;44.00;;;;;;4997482;28;20518;-72
2022/02/20 04:05:19;;;;;;;0.73;0.50;;;21.80;44.00;;;;;;4997425;28;21390;-72
2022/02/20 04:07:45;;;;;;;0.43;0.40;;;21.80;44.00;;;;;;4996721;28;20038;-70
2022/02/20 04:10:13;;;;;;;0.90;0.65;;;21.80;44.00;;;;;;4997025;28;20034;-72
2022/02/20 04:12:40;;;;;;;1.00;0.60;;;21.80;43.90;;;;;;4997074;28;20039;-71
2022/02/20 04:15:06;;;;;;;1.58;0.60;;;21.70;43.90;;;;;;4996847;28;20022;-73
2022/02/20 04:17:43;;;;;;;0.68;0.47;;;21.70;43.90;;;;;;5011025;28;20568;-71
2022/02/20 04:20:15;;;;;;;0.50;0.50;;;21.70;43.90;;;;;;4995112;28;20029;-69
2022/02/20 04:22:41;;;;;;;1.73;0.50;;;21.70;43.90;;;;;;5013266;28;20403;-73
2022/02/20 04:25:08;;;;;;;0.93;0.50;;;21.70;44.00;;;;;;4996981;28;20038;-72
2022/02/20 04:27:33;;;;;;;0.80;0.50;;;21.70;44.00;;;;;;5011831;28;20124;-70
2022/02/20 04:29:59;;;;;;;0.68;0.40;;;21.70;44.00;;;;;;4994800;28;20561;-73
2022/02/20 04:32:25;;;;;;;1.17;0.60;;;21.60;43.90;;;;;;4996578;28;20057;-72
2022/02/20 04:34:50;;;;;;;0.80;0.50;;;21.60;44.00;;;;;;4995874;28;20041;-68
2022/02/20 04:37:16;;;;;;;0.95;0.50;;;21.60;44.00;;;;;;5011764;28;20026;-72
2022/02/20 04:39:42;;;;;;;0.70;0.50;;;21.60;44.00;;;;;;4995220;28;20018;-72
2022/02/20 04:42:07;;;;;;;0.50;0.50;;;21.60;44.10;;;;;;4994952;28;20128;-71
2022/02/20 04:44:33;;;;;;;0.60;0.50;;;21.60;44.10;;;;;;4995821;28;20034;-70
2022/02/20 04:46:59;;;;;;;0.60;0.50;;;21.60;44.10;;;;;;5010892;28;20042;-70
2022/02/20 04:49:24;;;;;;;0.73;0.50;;;21.60;44.10;;;;;;4994639;28;20057;-73
2022/02/20 04:51:50;;;;;;;0.50;0.40;;;21.60;44.10;;;;;;4996021;28;20037;-69
2022/02/20 04:54:16;;;;;;;0.75;0.60;;;21.50;44.10;;;;;;4996198;28;20092;-72
2022/02/20 04:56:42;;;;;;;0.60;0.50;;;21.60;44.20;;;;;;5012146;28;20064;-71
2022/02/20 04:59:12;;;;;;;1.25;0.57;;;21.50;44.20;;;;;;4994634;28;20117;-70
2022/02/20 05:01:38;;;;;;;0.75;0.50;;;21.50;44.10;;;;;;4994468;28;20165;-70
2022/02/20 05:04:05;;;;;;;0.90;0.60;;;21.50;44.10;;;;;;4995502;28;20036;-68
2022/02/20 05:06:31;;;;;;;0.98;0.60;;;21.50;44.00;;;;;;4996447;28;20301;-69
2022/02/20 05:08:57;;;;;;;1.67;0.68;;;21.50;44.10;;;;;;4996587;28;20111;-69
2022/02/20 05:11:27;;;;;;;0.88;0.45;;;21.50;44.10;;;;;;4997428;28;20019;-68
2022/02/20 05:13:55;;;;;;;0.82;0.50;;;21.50;44.10;;;;;;4996504;28;20125;-70
2022/02/20 05:16:24;;;;;;;0.63;0.50;;;21.50;44.10;;;;;;4994387;28;20053;-70
2022/02/20 05:18:51;;;;;;;;;;;21.40;44.10;;;;;;4994658;28;20034;-72
2022/02/20 05:21:17;;;;;;;0.52;0.40;;;21.40;44.10;;;;;;4995667;28;19913;-69
2022/02/20 05:23:42;;;;;;;0.70;0.50;;;21.40;44.10;;;;;;4996731;28;20025;-71
2022/02/20 05:26:08;;;;;;;0.90;0.60;;;21.40;44.10;;;;;;4994124;28;20051;-71
2022/02/20 05:28:34;;;;;;;0.80;0.52;;;21.40;44.10;;;;;;4995818;28;20483;-71
2022/02/20 05:31:00;;;;;;;0.93;0.57;;;21.40;44.20;;;;;;4992598;28;20046;-71
2022/02/20 05:33:26;;;;;;;0.80;0.50;;;21.40;44.20;;;;;;4995319;28;20333;-71
2022/02/20 05:35:51;;;;;;;0.52;0.52;;;21.40;44.10;;;;;;4995465;28;20355;-69
2022/02/20 05:38:17;;;;;;;0.60;0.50;;;21.30;44.10;;;;;;4996914;28;20593;-68
2022/02/20 05:40:43;;;;;;;1.10;0.60;;;21.40;44.10;;;;;;4995178;28;20554;-70
2022/02/20 05:43:09;;;;;;;1.02;0.50;;;21.30;44.10;;;;;;4995493;28;20037;-71
2022/02/20 05:45:35;;;;;;;0.65;0.50;;;21.30;44.10;;;;;;5009953;28;20030;-71
2022/02/20 05:48:03;;;;;;;0.60;0.45;;;21.30;44.10;;;;;;4995595;28;20026;-70
2022/02/20 05:50:29;;;;;;;0.77;0.52;;;21.30;44.10;;;;;;4995135;28;20064;-68
2022/02/20 05:52:55;;;;;;;0.60;0.60;;;21.30;44.20;;;;;;4998222;28;20422;-72
2022/02/20 05:55:21;;;;;;;0.65;0.50;;;21.30;44.20;;;;;;4998670;28;20566;-71
2022/02/20 05:57:52;;;;;;;0.50;0.40;;;21.30;44.20;;;;;;5014414;28;20336;-70
2022/02/20 06:00:23;;;;;;;0.85;0.50;;;21.30;44.30;;;;;;4998334;28;20026;-72
2022/02/20 06:02:49;;;;;;;0.57;0.40;;;21.30;44.30;;;;;;4998006;28;20172;-71
2022/02/20 06:05:15;;;;;;;0.55;0.55;;;21.20;44.30;;;;;;4999287;28;20520;-68
2022/02/20 06:07:41;;;;;;;0.40;0.40;;;21.20;44.20;;;;;;4999553;28;20026;-72
2022/02/20 06:10:08;;;;;;;0.50;0.40;;;21.20;44.10;;;;;;4997972;28;20037;-70
2022/02/20 06:12:34;;;;;;;0.47;0.47;;;21.20;44.20;;;;;;5000262;28;20099;-71
2022/02/20 06:15:00;;;;;;;0.88;0.50;;;21.20;44.10;;;;;;4998272;28;20037;-70
2022/02/20 06:17:26;;;;;;;0.57;0.50;;;21.20;44.00;;;;;;4998687;28;20557;-72
2022/02/20 06:19:52;;;;;;;1.10;0.63;;;21.20;44.20;;;;;;4999002;28;20040;-70
2022/02/20 06:22:18;;;;;;;0.75;0.45;;;21.20;44.20;;;;;;5000309;28;20470;-72
2022/02/20 06:24:44;;;;;;;0.73;0.47;;;21.20;44.10;;;;;;4999946;28;20057;-70
2022/02/20 06:27:10;;;;;;;0.40;0.40;;;21.10;44.10;;;;;;4998364;28;20037;-68
2022/02/20 06:29:36;;;;;;;0.50;0.40;;;21.10;44.10;;;;;;4998181;28;20030;-72
2022/02/20 06:32:02;;;;;;;0.73;0.40;;;21.10;44.10;;;;;;4997330;28;20049;-71
2022/02/20 06:34:28;;;;;;;1.15;0.60;;;21.10;44.10;;;;;;5000015;28;20489;-70
2022/02/20 06:36:53;;;;;;;0.75;0.50;;;21.10;44.10;;;;;;5000439;28;20116;-70
2022/02/20 06:39:20;;;;;;;0.55;0.40;;;21.10;44.20;;;;;;5013996;28;20117;-70
2022/02/20 06:41:46;;;;;;;0.60;0.50;;;21.10;44.20;;;;;;4998798;28;20098;-70
2022/02/20 06:44:12;;;;;;;0.82;0.45;;;21.10;44.30;;;;;;4998083;28;20102;-69
2022/02/20 06:46:38;;;;;;;1.45;0.50;;;21.10;44.20;;;;;;4997884;28;20068;-71
2022/02/20 06:49:07;;;;;;;0.93;0.40;;;21.10;44.10;;;;;;5012578;28;20507;-70
2022/02/20 06:51:36;;;;;;;0.60;0.43;;;21.10;44.30;;;;;;5013990;28;20033;-72
2022/02/20 06:54:03;;;;;;;0.52;0.40;;;21.00;44.10;;;;;;4998856;28;20030;-70
2022/02/20 06:56:30;;;;;;;0.50;0.43;;;21.10;44.30;;;;;;5014642;28;20022;-71
2022/02/20 06:58:55;;;;;;;0.63;0.40;;;21.00;44.20;;;;;;4997580;28;20030;-71
2022/02/20 07:01:21;;;;;;;0.77;0.45;;;21.00;44.20;;;;;;4989220;28;20038;-70
2022/02/20 07:03:48;;;;;;;0.80;0.50;;;21.10;44.20;;;;;;4992094;28;20817;-71
2022/02/20 07:06:14;;;;;;;0.85;0.50;;;21.10;44.70;;;;;;4995858;28;20034;-71
2022/02/20 07:08:39;;;;;;;0.52;0.40;;;21.00;44.10;;;;;;4994606;28;20030;-71
2022/02/20 07:11:05;;;;;;;0.52;0.40;;;21.00;44.20;;;;;;4996901;28;20036;-71
2022/02/20 07:13:31;;;;;;;0.90;0.50;;;21.00;44.10;;;;;;5010425;28;20030;-71
2022/02/20 07:15:57;;;;;;;0.93;0.43;;;21.00;44.20;;;;;;4993322;28;20137;-72
2022/02/20 07:18:23;;;;;;;0.40;0.40;;;21.00;44.20;;;;;;4992976;28;20042;-68
2022/02/20 07:20:49;;;;;;;0.63;0.43;;;21.00;44.10;;;;;;4995729;28;20359;-71
2022/02/20 07:23:16;;;;;;;0.88;0.50;;;21.00;44.20;;;;;;4998765;28;20033;-68
2022/02/20 07:25:41;;;;;;;0.38;0.30;;;21.00;44.80;;;;;;4992544;28;20030;-69
2022/02/20 07:28:08;;;;;;;0.50;0.32;;;21.00;44.30;;;;;;4994831;28;20029;-69
2022/02/20 07:30:34;;;;;;;1.10;0.50;;;21.00;44.30;;;;;;4992880;28;20034;-73
2022/02/20 07:33:04;;;;;;;0.47;0.47;;;20.90;44.20;;;;;;4993299;28;20066;-71
2022/02/20 07:35:31;;;;;;;0.30;0.30;;;20.90;44.20;;;;;;5008556;28;20025;-70
2022/02/20 07:37:57;;;;;;;1.75;0.30;;;20.90;44.20;;;;;;4994505;28;20295;-68
2022/02/20 07:40:22;;;;;;;0.45;0.40;;;20.90;44.20;;;;;;4994208;28;20446;-71
2022/02/20 07:42:48;;;;;;;0.70;0.50;;;20.90;44.20;;;;;;4994294;28;20151;-68
2022/02/20 07:45:14;;;;;;;0.32;0.30;;;20.90;44.20;;;;;;4993830;28;20033;-70
2022/02/20 07:47:59;;;;;;;0.52;0.40;;;20.90;44.20;;;;;;4993110;28;20026;-72
2022/02/20 07:50:28;;;;;;;0.40;0.38;;;20.90;44.20;;;;;;5006287;28;20030;-70
2022/02/20 07:52:54;;;;;;;0.40;0.30;;;20.90;44.30;;;;;;4994607;28;20037;-70
2022/02/20 07:55:20;;;;;;;0.30;0.30;;;20.90;44.30;;;;;;4993896;28;20049;-72
2022/02/20 07:57:47;;;;;;;0.50;0.40;;;20.90;44.30;;;;;;4994562;28;20540;-70
2022/02/20 08:00:14;;;;;;;0.30;0.30;;;20.90;44.30;;;;;;4990307;28;20473;-70
2022/02/20 08:02:41;;;;;;;0.52;0.43;;;20.90;44.30;;;;;;4991449;28;20030;-72
2022/02/20 08:05:07;;;;;;;0.45;0.30;;;20.80;44.40;;;;;;4996769;28;20026;-70
2022/02/20 08:07:33;;;;;;;0.55;0.40;;;20.80;44.40;;;;;;4997865;28;20379;-69
2022/02/20 08:09:59;;;;;;;0.32;0.30;;;20.90;44.50;;;;;;5006719;28;20088;-71
2022/02/20 08:12:24;;;;;;;0.45;0.40;;;20.80;44.40;;;;;;5007221;28;20042;-70
2022/02/20 08:14:50;;;;;;;0.50;0.43;;;20.80;44.50;;;;;;5008062;28;20031;-70
2022/02/20 08:17:15;;;;;;;0.50;0.30;;;20.80;44.40;;;;;;4992193;28;20030;-71
2022/02/20 08:19:41;;;;;;;0.60;0.40;;;20.80;44.50;;;;;;5008790;28;20210;-72
2022/02/20 08:22:07;;;;;;;0.90;0.40;;;20.80;44.50;;;;;;4992350;28;20057;-71
2022/02/20 08:24:33;;;;;;;0.40;0.40;;;20.80;44.50;;;;;;4993832;28;20133;-72
2022/02/20 08:26:58;;;;;;;0.50;0.43;;;20.80;44.50;;;;;;5008760;28;20505;-68
2022/02/20 08:29:24;;;;;;;0.40;0.40;;;20.80;44.50;;;;;;4991171;28;20037;-71
2022/02/20 08:31:50;;;;;;;0.70;0.40;;;20.80;44.60;;;;;;4991627;28;20054;-68
2022/02/20 08:34:16;;;;;;;0.38;0.32;;;20.80;44.60;;;;;;4992377;28;20026;-70
2022/02/20 08:36:42;;;;;;;0.35;0.35;;;20.80;44.60;;;;;;4993183;28;20053;-73
2022/02/20 08:39:07;;;;;;;0.30;0.30;;;20.80;44.60;;;;;;4992914;28;20033;-70
2022/02/20 08:41:35;;;;;;;0.38;0.30;;;20.80;44.60;;;;;;4992454;28;20033;-70
2022/02/20 08:44:02;;;;;;;0.50;0.40;;;20.80;44.60;;;;;;5009231;28;20026;-70
2022/02/20 08:46:28;;;;;;;0.52;0.40;;;20.80;44.50;;;;;;4991968;28;20033;-71
2022/02/20 08:48:54;;;;;;;0.65;0.40;;;20.80;44.40;;;;;;4990965;28;20454;-70
2022/02/20 08:51:19;;;;;;;0.93;0.40;;;20.80;44.40;;;;;;4993694;28;20030;-68
2022/02/20 08:53:47;;;;;;;0.30;0.30;;;20.70;44.30;;;;;;4997000;28;20037;-68
2022/02/20 08:56:13;;;;;;;0.57;0.50;;;20.70;44.30;;;;;;5011939;28;20121;-72
2022/02/20 08:58:38;;;;;;;0.45;0.40;;;20.70;44.30;;;;;;4995867;28;20526;-71
2022/02/20 09:01:04;;;;;;;0.55;0.45;;;20.70;44.30;;;;;;4992444;28;20402;-72
2022/02/20 09:03:30;;;;;;;0.50;0.40;;;20.70;44.90;;;;;;4992426;28;20030;-70
2022/02/20 09:05:56;;;;;;;0.43;0.35;;;20.70;44.30;;;;;;4993291;28;20033;-71
2022/02/20 09:08:22;;;;;;;0.52;0.50;;;20.70;44.30;;;;;;4990514;28;20121;-72
2022/02/20 09:10:48;;;;;;;0.30;0.30;;;20.70;44.30;;;;;;4990776;28;20038;-70
2022/02/20 09:13:15;;;;;;;0.73;0.50;;;20.70;44.30;;;;;;4993526;28;20096;-70
2022/02/20 09:15:41;;;;;;;0.40;0.40;;;20.70;44.40;;;;;;4991323;28;20026;-71
2022/02/20 09:18:06;;;;;;;0.55;0.40;;;20.70;44.40;;;;;;4991632;28;20092;-69
2022/02/20 09:20:32;;;;;;;0.82;0.50;;;20.70;44.40;;;;;;5005611;28;20084;-70
2022/02/20 09:22:58;;;;;;;0.75;0.52;;;20.70;44.50;;;;;;4992831;28;20467;-72
2022/02/20 09:25:23;;;;;;;0.88;0.50;;;20.70;44.50;;;;;;4996637;28;20494;-69
2022/02/20 09:27:49;;;;;;;0.57;0.40;;;20.70;44.50;;;;;;4992490;28;20144;-72
2022/02/20 09:30:15;;;;;;;0.98;0.50;;;20.70;44.50;;;;;;4991112;28;20511;-69
2022/02/20 09:32:41;;;;;;;0.57;0.30;;;20.70;45.10;;;;;;5004835;28;20371;-70
2022/02/20 09:35:07;;;;;;;1.55;0.50;;;20.70;44.50;;;;;;4992781;28;20026;-71
2022/02/20 09:37:33;;;;;;;1.95;0.50;;;20.60;44.40;;;;;;4992293;28;20124;-72
2022/02/20 09:39:59;;;;;;;1.30;0.50;;;20.70;44.50;;;;;;4993206;28;20053;-69
2022/02/20 09:42:26;;;;;;;1.02;0.50;;;20.60;44.40;;;;;;4990679;28;20046;-69
2022/02/20 09:44:52;;;;;;;0.93;0.50;;;20.60;44.20;;;;;;4988393;28;20030;-70
2022/02/20 09:47:17;;;;;;;1.05;0.60;;;20.60;44.40;;;;;;4991733;28;20494;-68
2022/02/20 09:49:45;;;;;;;0.82;0.40;;;20.60;44.30;;;;;;5007505;28;20049;-71
2022/02/20 09:52:11;;;;;;;0.70;0.43;;;20.60;44.40;;;;;;4993101;28;20034;-70
2022/02/20 09:54:37;;;;;;;1.02;0.47;;;20.60;44.40;;;;;;4987556;28;20519;-68
2022/02/20 09:57:03;;;;;;;0.82;0.52;;;20.60;45.00;;;;;;4988633;28;20029;-72
2022/02/20 09:59:29;;;;;;;1.42;0.60;;;20.70;45.00;;;;;;4987095;28;20454;-72
2022/02/20 10:02:08;;;;;;;2.40;0.75;;;20.80;45.20;;;;;;5003032;28;20493;-70
2022/02/20 10:04:54;;;;;;;1.80;0.68;;;20.90;45.10;;;;;;4990410;28;20593;-67
2022/02/20 10:07:34;;;;;;;2.15;0.73;;;21.00;44.90;;;;;;4991317;28;20041;-68
2022/02/20 10:10:05;;;;;;;4.63;0.80;;;21.10;44.80;;;;;;5004335;28;20482;-69
2022/02/20 10:12:30;;;;;;;2.25;0.77;;;21.20;44.60;;;;;;4989387;28;20030;-70
2022/02/20 10:14:57;;;;;;;2.35;0.93;;;21.30;44.30;;;;;;4988172;28;20030;-66
2022/02/20 10:17:27;;;;;;;1.75;0.70;;;21.40;44.20;;;;;;5004160;28;20559;-69
2022/02/20 10:20:07;;;;;;;1.73;0.70;;;21.40;44.00;;;;;;5002485;28;20034;-70
2022/02/20 10:22:38;;;;;;;2.22;0.80;;;21.50;44.00;;;;;;4990380;28;20104;-69
2022/02/20 10:25:09;;;;;;;2.05;0.80;;;21.70;44.00;;;;;;4989489;28;20463;-68
2022/02/20 10:27:36;;;;;;;2.75;0.85;;;21.80;43.90;;;;;;4990162;28;20045;-67
2022/02/20 10:30:08;;;;;;;2.80;0.77;;;21.80;43.60;;;;;;4994284;28;20140;-69
2022/02/20 10:32:34;;;;;;;2.38;0.88;;;21.90;43.60;;;;;;4987614;28;20510;-67
2022/02/20 10:35:14;;;;;;;2.38;0.90;;;22.10;43.50;;;;;;4990560;28;20153;-69
2022/02/20 10:37:40;;;;;;;3.80;0.90;;;22.10;43.40;;;;;;4991172;28;20062;-65
2022/02/20 10:40:26;;;;;;;3.70;1.10;;;22.20;43.30;;;;;;4990972;28;20467;-69
2022/02/20 10:42:54;;;;;;;3.20;1.25;;;22.40;43.10;;;;;;4993390;28;20061;-70
2022/02/20 10:45:29;;;;;;;3.20;1.27;;;22.50;42.80;;;;;;4992523;28;20801;-66
2022/02/20 10:47:56;;;;;;;4.28;1.20;;;22.60;43.00;;;;;;4992123;28;20584;-64
2022/02/20 10:50:24;;;;;;;4.75;1.55;;;22.70;42.40;;;;;;4993445;28;20430;-68
2022/02/20 10:53:08;;;;;;;4.75;1.20;;;22.80;42.20;;;;;;4994120;28;20034;-67
2022/02/20 10:55:40;;;;;;;3.67;1.10;;;22.70;42.00;;;;;;4993674;28;20029;-71
2022/02/20 10:58:23;;;;;;;2.80;1.10;;;22.70;41.90;;;;;;4991102;28;20026;-68
2022/02/20 11:00:48;;;;;;;2.35;1.17;;;22.60;41.90;;;;;;4990413;28;20038;-70
2022/02/20 11:03:15;;;;;;;3.80;1.30;;;22.60;42.20;;;;;;5008722;28;20040;-70
2022/02/20 11:05:41;;;;;;;3.45;1.50;;;22.60;43.10;;;;;;5010292;28;20057;-72
2022/02/20 11:08:08;;;;;;;3.65;1.05;;;22.60;42.50;;;;;;5010942;28;20367;-72
2022/02/20 11:10:34;;;;;;;3.50;0.90;;;22.50;42.40;;;;;;4994131;28;20034;-72
2022/02/20 11:13:01;;;;;;;2.78;0.90;;;22.50;42.20;;;;;;4993810;28;20506;-69
2022/02/20 11:15:27;;;;;;;2.45;0.95;;;22.50;42.30;;;;;;5009529;28;20030;-69
2022/02/20 11:18:01;;;;;;;3.45;1.00;;;22.50;42.60;;;;;;4993855;28;20165;-72
2022/02/20 11:20:30;;;;;;;4.03;1.17;;;22.50;42.80;;;;;;4992999;28;20054;-71
2022/02/20 11:22:59;;;;;;;;;;;22.50;42.90;;;;;;5010690;28;20041;-68
2022/02/20 11:25:26;;;;;;;2.38;0.80;;;22.40;42.80;;;;;;4995853;28;20357;-71
2022/02/20 11:27:55;;;;;;;3.08;0.90;;;22.40;42.90;;;;;;4993571;28;20129;-69
2022/02/20 11:30:21;;;;;;;3.83;1.00;;;22.40;43.00;;;;;;5006217;28;20041;-69
2022/02/20 11:32:48;;;;;;;5.10;0.93;;;22.40;43.10;;;;;;4991910;28;20022;-72
2022/02/20 11:35:14;;;;;;;3.60;1.10;;;22.40;43.10;;;;;;4990587;28;20502;-69
2022/02/20 11:37:47;;;;;;;2.35;1.00;;;22.30;43.10;;;;;;4991271;28;20032;-67
2022/02/20 11:40:14;;;;;;;2.70;0.93;;;22.30;43.20;;;;;;5005137;28;20355;-68
2022/02/20 11:43:00;;;;;;;2.80;0.90;;;22.30;43.40;;;;;;4990649;28;20048;-71
2022/02/20 11:45:26;;;;;;;2.40;0.90;;;22.30;43.40;;;;;;4989467;28;20465;-68
2022/02/20 11:48:04;;;;;;;2.08;0.70;;;22.20;43.30;;;;;;4990477;28;20623;-69
2022/02/20 11:50:32;;;;;;;3.30;0.80;;;22.30;43.30;;;;;;4990334;28;21074;-69
2022/02/20 11:53:04;;;;;;;2.35;0.80;;;22.30;43.30;;;;;;4991288;28;20029;-71
2022/02/20 11:55:37;;;;;;;4.05;1.33;;;22.20;43.30;;;;;;4990095;28;20703;-68
2022/02/20 11:58:17;;;;;;;2.13;0.80;;;22.20;43.30;;;;;;5007022;28;20152;-71
2022/02/20 12:00:54;;;;;;;;;;;22.20;43.60;;;;;;5003377;28;20030;-68
2022/02/20 12:03:25;;;;;;;2.03;0.70;;;22.20;43.50;;;;;;5005975;28;19935;-70
2022/02/20 12:06:09;;;;;;;2.08;0.90;;;22.20;43.60;;;;;;4990228;28;20106;-71
2022/02/20 12:08:37;;;;;;;3.67;1.15;;;22.20;43.60;;;;;;4990148;28;20062;-69
2022/02/20 12:11:23;;;;;;;2.20;0.80;;;22.20;43.60;;;;;;4991492;28;20490;-70
2022/02/20 12:13:53;;;;;;;2.45;0.80;;;22.10;43.60;;;;;;4988904;28;20121;-70
2022/02/20 12:16:20;;;;;;;3.17;0.98;;;22.10;43.70;;;;;;4989534;28;20029;-71
2022/02/20 12:19:37;;;;;;;2.17;0.77;;;22.10;43.80;;;;;;4993267;28;20550;-69
2022/02/20 12:22:03;;;;;;;1.80;0.70;;;22.10;43.60;;;;;;4991518;28;20041;-70
2022/02/20 12:24:55;;;;;;;2.88;0.98;;;22.10;43.40;;;;;;4973959;28;20018;-69
2022/02/20 12:27:28;;;;;;;3.33;0.77;;;22.10;43.40;;;;;;4991081;28;20042;-69
2022/02/20 12:30:05;;;;;;;1.58;0.70;;;22.10;43.40;;;;;;4994081;28;20359;-68
2022/02/20 12:32:31;;;;;;;2.28;0.73;;;22.10;43.50;;;;;;4990966;28;20136;-68
2022/02/20 12:35:09;;;;;;;3.65;0.88;;;22.10;43.60;;;;;;4994523;28;20478;-65
2022/02/20 12:37:41;;;;;;;2.67;1.00;;;22.10;43.50;;;;;;5012119;28;20433;-68
2022/02/20 12:40:09;;;;;;;2.50;0.68;;;22.20;43.70;;;;;;4992408;28;20129;-70
2022/02/20 12:42:57;;;;;;;2.75;0.70;;;22.20;43.70;;;;;;4993732;28;20030;-68
2022/02/20 12:45:23;;;;;;;3.45;0.80;;;22.20;43.80;;;;;;4989370;28;20053;-67
2022/02/20 12:47:53;;;;;;;2.38;0.80;;;22.30;43.90;;;;;;4991089;28;20343;-69
2022/02/20 12:50:20;;;;;;;4.10;0.88;;;22.30;43.80;;;;;;4992465;28;20073;-70